Terminal Aerodrome Forecast
Issued by NWS

Home | Current Version | Previous Version | Text Only | Print | Product List | Glossary On
Versions: 1 2 3 4 5 6 7 8 9 10 11 12 13 14 15 16 17 18 19 20 21
000
FTUS43 KOAX 242326
TAFBFF
TAF
KBFF 242326Z 2500/2524 06011KT P6SM OVC025
     FM250200 06007KT P6SM VCSH OVC015
     FM250900 06010KT P6SM BKN008
     FM251600 09006KT P6SM SCT015 BKN025=

USA.gov is the U.S. government's official web portal to all federal, state and local government web resources and services.